sensor_id;sensor_type;location;lat;lon;timestamp;P1;durP1;ratioP1;P2;durP2;ratioP2
6809;SDS011;3443;48.812;9.112;2022-11-20T00:02:15;7.80;;;7.00;;
6809;SDS011;3443;48.812;9.112;2022-11-20T00:04:40;9.35;;;7.32;;
6809;SDS011;3443;48.812;9.112;2022-11-20T00:07:06;8.40;;;7.60;;
6809;SDS011;3443;48.812;9.112;2022-11-20T00:09:33;8.85;;;7.53;;
6809;SDS011;3443;48.812;9.112;2022-11-20T00:11:59;8.50;;;7.55;;
6809;SDS011;3443;48.812;9.112;2022-11-20T00:14:24;8.57;;;7.68;;
6809;SDS011;3443;48.812;9.112;2022-11-20T00:16:50;10.25;;;8.90;;
6809;SDS011;3443;48.812;9.112;2022-11-20T00:19:16;10.40;;;8.07;;
6809;SDS011;3443;48.812;9.112;2022-11-20T00:21:41;10.02;;;7.75;;
6809;SDS011;3443;48.812;9.112;2022-11-20T00:24:10;9.02;;;7.43;;
6809;SDS011;3443;48.812;9.112;2022-11-20T00:26:35;9.77;;;7.55;;
6809;SDS011;3443;48.812;9.112;2022-11-20T00:29:02;8.00;;;6.95;;
6809;SDS011;3443;48.812;9.112;2022-11-20T00:31:28;8.52;;;7.13;;
6809;SDS011;3443;48.812;9.112;2022-11-20T00:33:55;7.63;;;6.93;;
6809;SDS011;3443;48.812;9.112;2022-11-20T00:36:22;7.43;;;6.55;;
6809;SDS011;3443;48.812;9.112;2022-11-20T00:38:52;7.85;;;6.75;;
6809;SDS011;3443;48.812;9.112;2022-11-20T00:41:19;6.82;;;5.72;;
6809;SDS011;3443;48.812;9.112;2022-11-20T00:43:45;7.03;;;6.00;;
6809;SDS011;3443;48.812;9.112;2022-11-20T00:46:15;6.45;;;5.85;;
6809;SDS011;3443;48.812;9.112;2022-11-20T00:48:42;7.90;;;5.47;;
6809;SDS011;3443;48.812;9.112;2022-11-20T00:51:08;6.05;;;5.25;;
6809;SDS011;3443;48.812;9.112;2022-11-20T00:53:36;6.53;;;5.88;;
6809;SDS011;3443;48.812;9.112;2022-11-20T00:56:03;5.68;;;5.10;;
6809;SDS011;3443;48.812;9.112;2022-11-20T00:58:32;5.13;;;4.63;;
6809;SDS011;3443;48.812;9.112;2022-11-20T01:01:00;4.88;;;4.47;;
6809;SDS011;3443;48.812;9.112;2022-11-20T01:03:27;4.53;;;4.22;;
6809;SDS011;3443;48.812;9.112;2022-11-20T01:05:53;4.38;;;3.83;;
6809;SDS011;3443;48.812;9.112;2022-11-20T01:08:18;5.28;;;4.03;;
6809;SDS011;3443;48.812;9.112;2022-11-20T01:10:44;4.53;;;4.22;;
6809;SDS011;3443;48.812;9.112;2022-11-20T01:13:09;4.57;;;4.18;;
6809;SDS011;3443;48.812;9.112;2022-11-20T01:15:53;3.53;;;3.30;;
6809;SDS011;3443;48.812;9.112;2022-11-20T01:18:19;3.47;;;3.28;;
6809;SDS011;3443;48.812;9.112;2022-11-20T01:20:45;3.40;;;3.10;;
6809;SDS011;3443;48.812;9.112;2022-11-20T01:23:10;3.72;;;3.42;;
6809;SDS011;3443;48.812;9.112;2022-11-20T01:25:36;3.17;;;2.97;;
6809;SDS011;3443;48.812;9.112;2022-11-20T01:28:01;3.47;;;3.28;;
6809;SDS011;3443;48.812;9.112;2022-11-20T01:30:27;2.75;;;2.65;;
6809;SDS011;3443;48.812;9.112;2022-11-20T01:32:54;3.10;;;2.85;;
6809;SDS011;3443;48.812;9.112;2022-11-20T01:35:20;2.90;;;2.70;;
6809;SDS011;3443;48.812;9.112;2022-11-20T01:37:46;3.08;;;2.83;;
6809;SDS011;3443;48.812;9.112;2022-11-20T01:40:11;3.42;;;3.15;;
6809;SDS011;3443;48.812;9.112;2022-11-20T01:42:37;3.50;;;3.20;;
6809;SDS011;3443;48.812;9.112;2022-11-20T01:48:12;3.30;;;2.88;;
6809;SDS011;3443;48.812;9.112;2022-11-20T01:50:38;3.47;;;3.28;;
6809;SDS011;3443;48.812;9.112;2022-11-20T01:53:10;2.70;;;2.60;;
6809;SDS011;3443;48.812;9.112;2022-11-20T01:55:41;2.65;;;2.55;;
6809;SDS011;3443;48.812;9.112;2022-11-20T01:58:10;2.60;;;2.50;;
6809;SDS011;3443;48.812;9.112;2022-11-20T02:00:37;2.38;;;2.28;;
6809;SDS011;3443;48.812;9.112;2022-11-20T02:03:13;2.33;;;2.22;;
6809;SDS011;3443;48.812;9.112;2022-11-20T02:05:44;2.03;;;1.92;;
6809;SDS011;3443;48.812;9.112;2022-11-20T02:08:10;2.60;;;2.50;;
6809;SDS011;3443;48.812;9.112;2022-11-20T02:10:37;2.58;;;2.47;;
6809;SDS011;3443;48.812;9.112;2022-11-20T02:13:03;2.75;;;2.63;;
6809;SDS011;3443;48.812;9.112;2022-11-20T02:15:48;3.08;;;2.70;;
6809;SDS011;3443;48.812;9.112;2022-11-20T02:18:14;2.33;;;2.22;;
6809;SDS011;3443;48.812;9.112;2022-11-20T02:20:44;2.58;;;2.45;;
6809;SDS011;3443;48.812;9.112;2022-11-20T02:23:12;2.10;;;2.00;;
6809;SDS011;3443;48.812;9.112;2022-11-20T02:25:56;2.00;;;1.90;;
6809;SDS011;3443;48.812;9.112;2022-11-20T02:28:23;2.00;;;1.90;;
6809;SDS011;3443;48.812;9.112;2022-11-20T02:30:49;2.00;;;2.00;;
6809;SDS011;3443;48.812;9.112;2022-11-20T02:33:14;1.58;;;1.58;;
6809;SDS011;3443;48.812;9.112;2022-11-20T02:35:41;1.30;;;1.30;;
6809;SDS011;3443;48.812;9.112;2022-11-20T02:38:08;2.28;;;1.42;;
6809;SDS011;3443;48.812;9.112;2022-11-20T02:40:34;1.17;;;1.17;;
6809;SDS011;3443;48.812;9.112;2022-11-20T02:43:00;1.45;;;1.45;;
6809;SDS011;3443;48.812;9.112;2022-11-20T02:45:26;1.52;;;1.52;;
6809;SDS011;3443;48.812;9.112;2022-11-20T02:47:51;1.38;;;1.27;;
6809;SDS011;3443;48.812;9.112;2022-11-20T02:50:17;1.27;;;1.27;;
6809;SDS011;3443;48.812;9.112;2022-11-20T02:52:43;1.60;;;1.50;;
6809;SDS011;3443;48.812;9.112;2022-11-20T02:55:09;1.20;;;1.20;;
6809;SDS011;3443;48.812;9.112;2022-11-20T02:57:35;1.20;;;1.20;;
6809;SDS011;3443;48.812;9.112;2022-11-20T03:00:00;1.33;;;1.23;;
6809;SDS011;3443;48.812;9.112;2022-11-20T03:02:30;1.42;;;1.42;;
6809;SDS011;3443;48.812;9.112;2022-11-20T03:04:56;1.13;;;1.10;;
6809;SDS011;3443;48.812;9.112;2022-11-20T03:07:22;1.48;;;1.48;;
6809;SDS011;3443;48.812;9.112;2022-11-20T03:09:47;1.60;;;1.50;;
6809;SDS011;3443;48.812;9.112;2022-11-20T03:12:13;1.55;;;1.45;;
6809;SDS011;3443;48.812;9.112;2022-11-20T03:14:39;2.20;;;1.60;;
6809;SDS011;3443;48.812;9.112;2022-11-20T03:17:05;1.58;;;1.50;;
6809;SDS011;3443;48.812;9.112;2022-11-20T03:19:30;1.50;;;1.45;;
6809;SDS011;3443;48.812;9.112;2022-11-20T03:21:56;1.55;;;1.55;;
6809;SDS011;3443;48.812;9.112;2022-11-20T03:24:21;1.80;;;1.70;;
6809;SDS011;3443;48.812;9.112;2022-11-20T03:26:47;1.90;;;1.80;;
6809;SDS011;3443;48.812;9.112;2022-11-20T03:29:13;2.05;;;1.48;;
6809;SDS011;3443;48.812;9.112;2022-11-20T03:31:39;1.50;;;1.50;;
6809;SDS011;3443;48.812;9.112;2022-11-20T03:34:06;1.87;;;1.70;;
6809;SDS011;3443;48.812;9.112;2022-11-20T03:36:32;1.87;;;1.70;;
6809;SDS011;3443;48.812;9.112;2022-11-20T03:38:58;1.63;;;1.42;;
6809;SDS011;3443;48.812;9.112;2022-11-20T03:41:28;1.75;;;1.65;;
6809;SDS011;3443;48.812;9.112;2022-11-20T03:43:58;1.75;;;1.65;;
6809;SDS011;3443;48.812;9.112;2022-11-20T03:46:26;1.95;;;1.85;;
6809;SDS011;3443;48.812;9.112;2022-11-20T03:48:52;1.92;;;1.83;;
6809;SDS011;3443;48.812;9.112;2022-11-20T03:51:22;2.03;;;1.92;;
6809;SDS011;3443;48.812;9.112;2022-11-20T03:53:48;2.10;;;2.00;;
6809;SDS011;3443;48.812;9.112;2022-11-20T03:56:16;2.47;;;2.17;;
6809;SDS011;3443;48.812;9.112;2022-11-20T03:58:43;1.95;;;1.95;;
6809;SDS011;3443;48.812;9.112;2022-11-20T04:01:10;2.08;;;1.85;;
6809;SDS011;3443;48.812;9.112;2022-11-20T04:03:36;3.10;;;2.15;;
6809;SDS011;3443;48.812;9.112;2022-11-20T04:06:09;2.30;;;2.20;;
6809;SDS011;3443;48.812;9.112;2022-11-20T04:08:35;2.38;;;2.28;;
6809;SDS011;3443;48.812;9.112;2022-11-20T04:11:23;1.88;;;1.80;;
6809;SDS011;3443;48.812;9.112;2022-11-20T04:13:54;2.67;;;2.58;;
6809;SDS011;3443;48.812;9.112;2022-11-20T04:16:22;2.70;;;1.70;;
6809;SDS011;3443;48.812;9.112;2022-11-20T04:18:52;2.10;;;2.00;;
6809;SDS011;3443;48.812;9.112;2022-11-20T04:21:19;1.92;;;1.83;;
6809;SDS011;3443;48.812;9.112;2022-11-20T04:23:44;1.92;;;1.83;;
6809;SDS011;3443;48.812;9.112;2022-11-20T04:26:11;2.20;;;2.10;;
6809;SDS011;3443;48.812;9.112;2022-11-20T04:28:37;2.10;;;2.00;;
6809;SDS011;3443;48.812;9.112;2022-11-20T04:31:06;1.73;;;1.63;;
6809;SDS011;3443;48.812;9.112;2022-11-20T04:33:35;2.08;;;1.98;;
6809;SDS011;3443;48.812;9.112;2022-11-20T04:36:02;2.47;;;1.70;;
6809;SDS011;3443;48.812;9.112;2022-11-20T04:38:29;1.98;;;1.83;;
6809;SDS011;3443;48.812;9.112;2022-11-20T04:40:55;1.77;;;1.67;;
6809;SDS011;3443;48.812;9.112;2022-11-20T04:43:22;1.15;;;1.15;;
6809;SDS011;3443;48.812;9.112;2022-11-20T04:45:51;1.67;;;1.40;;
6809;SDS011;3443;48.812;9.112;2022-11-20T04:48:21;1.50;;;1.45;;
6809;SDS011;3443;48.812;9.112;2022-11-20T04:50:47;1.60;;;1.50;;
6809;SDS011;3443;48.812;9.112;2022-11-20T04:53:12;1.38;;;1.25;;
6809;SDS011;3443;48.812;9.112;2022-11-20T04:55:38;1.80;;;1.40;;
6809;SDS011;3443;48.812;9.112;2022-11-20T04:58:03;1.70;;;1.60;;
6809;SDS011;3443;48.812;9.112;2022-11-20T05:00:29;1.65;;;1.55;;
6809;SDS011;3443;48.812;9.112;2022-11-20T05:02:54;1.17;;;1.17;;
6809;SDS011;3443;48.812;9.112;2022-11-20T05:05:20;2.58;;;1.58;;
6809;SDS011;3443;48.812;9.112;2022-11-20T05:07:45;1.40;;;1.40;;
6809;SDS011;3443;48.812;9.112;2022-11-20T05:10:11;2.60;;;1.40;;
6809;SDS011;3443;48.812;9.112;2022-11-20T05:12:36;1.42;;;1.33;;
6809;SDS011;3443;48.812;9.112;2022-11-20T05:15:02;1.40;;;1.15;;
6809;SDS011;3443;48.812;9.112;2022-11-20T05:17:28;3.22;;;1.58;;
6809;SDS011;3443;48.812;9.112;2022-11-20T05:19:53;1.30;;;1.20;;
6809;SDS011;3443;48.812;9.112;2022-11-20T05:22:19;1.75;;;1.52;;
6809;SDS011;3443;48.812;9.112;2022-11-20T05:24:44;1.50;;;1.50;;
6809;SDS011;3443;48.812;9.112;2022-11-20T05:27:10;1.20;;;1.20;;
6809;SDS011;3443;48.812;9.112;2022-11-20T05:29:36;1.30;;;1.30;;
6809;SDS011;3443;48.812;9.112;2022-11-20T05:32:01;1.60;;;1.50;;
6809;SDS011;3443;48.812;9.112;2022-11-20T05:34:27;1.50;;;1.50;;
6809;SDS011;3443;48.812;9.112;2022-11-20T05:36:52;1.40;;;1.40;;
6809;SDS011;3443;48.812;9.112;2022-11-20T05:39:18;2.20;;;1.50;;
6809;SDS011;3443;48.812;9.112;2022-11-20T05:41:43;1.55;;;1.55;;
6809;SDS011;3443;48.812;9.112;2022-11-20T05:44:10;1.70;;;1.60;;
6809;SDS011;3443;48.812;9.112;2022-11-20T05:46:36;1.35;;;1.25;;
6809;SDS011;3443;48.812;9.112;2022-11-20T05:49:01;1.40;;;1.40;;
6809;SDS011;3443;48.812;9.112;2022-11-20T05:51:27;1.42;;;1.33;;
6809;SDS011;3443;48.812;9.112;2022-11-20T05:53:53;1.40;;;1.33;;
6809;SDS011;3443;48.812;9.112;2022-11-20T05:56:21;1.50;;;1.50;;
6809;SDS011;3443;48.812;9.112;2022-11-20T05:58:47;1.30;;;1.30;;
6809;SDS011;3443;48.812;9.112;2022-11-20T06:03:39;1.33;;;1.23;;
6809;SDS011;3443;48.812;9.112;2022-11-20T06:06:07;1.33;;;1.33;;
6809;SDS011;3443;48.812;9.112;2022-11-20T06:08:34;1.25;;;1.25;;
6809;SDS011;3443;48.812;9.112;2022-11-20T06:11:06;2.08;;;1.30;;
6809;SDS011;3443;48.812;9.112;2022-11-20T06:13:33;1.63;;;1.52;;
6809;SDS011;3443;48.812;9.112;2022-11-20T06:15:59;1.40;;;1.30;;
6809;SDS011;3443;48.812;9.112;2022-11-20T06:18:26;1.17;;;1.17;;
6809;SDS011;3443;48.812;9.112;2022-11-20T06:21:00;1.30;;;1.30;;
6809;SDS011;3443;48.812;9.112;2022-11-20T06:23:27;2.20;;;1.30;;
6809;SDS011;3443;48.812;9.112;2022-11-20T06:25:54;1.25;;;1.25;;
6809;SDS011;3443;48.812;9.112;2022-11-20T06:28:19;1.60;;;1.40;;
6809;SDS011;3443;48.812;9.112;2022-11-20T06:30:45;1.70;;;1.58;;
6809;SDS011;3443;48.812;9.112;2022-11-20T06:33:11;1.10;;;1.10;;
6809;SDS011;3443;48.812;9.112;2022-11-20T06:35:36;1.48;;;1.48;;
6809;SDS011;3443;48.812;9.112;2022-11-20T06:38:02;1.27;;;1.17;;
6809;SDS011;3443;48.812;9.112;2022-11-20T06:40:27;1.38;;;1.10;;
6809;SDS011;3443;48.812;9.112;2022-11-20T06:42:53;1.15;;;1.15;;
6809;SDS011;3443;48.812;9.112;2022-11-20T06:45:20;1.05;;;1.05;;
6809;SDS011;3443;48.812;9.112;2022-11-20T06:47:45;1.13;;;1.10;;
6809;SDS011;3443;48.812;9.112;2022-11-20T06:50:11;1.00;;;1.00;;
6809;SDS011;3443;48.812;9.112;2022-11-20T06:52:37;0.95;;;0.95;;
6809;SDS011;3443;48.812;9.112;2022-11-20T06:55:03;1.88;;;0.95;;
6809;SDS011;3443;48.812;9.112;2022-11-20T06:57:28;0.80;;;0.80;;
6809;SDS011;3443;48.812;9.112;2022-11-20T06:59:54;0.93;;;0.93;;
6809;SDS011;3443;48.812;9.112;2022-11-20T07:02:20;1.70;;;0.73;;
6809;SDS011;3443;48.812;9.112;2022-11-20T07:04:45;1.10;;;1.10;;
6809;SDS011;3443;48.812;9.112;2022-11-20T07:07:11;0.77;;;0.75;;
6809;SDS011;3443;48.812;9.112;2022-11-20T07:09:36;0.75;;;0.75;;
6809;SDS011;3443;48.812;9.112;2022-11-20T07:12:02;0.73;;;0.68;;
6809;SDS011;3443;48.812;9.112;2022-11-20T07:14:27;0.88;;;0.88;;
6809;SDS011;3443;48.812;9.112;2022-11-20T07:16:53;0.90;;;0.90;;
6809;SDS011;3443;48.812;9.112;2022-11-20T07:19:19;0.82;;;0.77;;
6809;SDS011;3443;48.812;9.112;2022-11-20T07:21:45;0.95;;;0.95;;
6809;SDS011;3443;48.812;9.112;2022-11-20T07:24:10;1.67;;;0.90;;
6809;SDS011;3443;48.812;9.112;2022-11-20T07:26:36;0.80;;;0.80;;
6809;SDS011;3443;48.812;9.112;2022-11-20T07:29:01;1.88;;;1.10;;
6809;SDS011;3443;48.812;9.112;2022-11-20T07:31:27;1.15;;;0.82;;
6809;SDS011;3443;48.812;9.112;2022-11-20T07:33:52;0.60;;;0.60;;
6809;SDS011;3443;48.812;9.112;2022-11-20T07:36:18;0.75;;;0.75;;
6809;SDS011;3443;48.812;9.112;2022-11-20T07:38:43;0.95;;;0.70;;
6809;SDS011;3443;48.812;9.112;2022-11-20T07:41:09;0.80;;;0.80;;
6809;SDS011;3443;48.812;9.112;2022-11-20T07:43:34;0.88;;;0.88;;
6809;SDS011;3443;48.812;9.112;2022-11-20T07:46:00;0.70;;;0.70;;
6809;SDS011;3443;48.812;9.112;2022-11-20T07:48:26;1.90;;;0.90;;
6809;SDS011;3443;48.812;9.112;2022-11-20T07:50:55;0.93;;;0.88;;
6809;SDS011;3443;48.812;9.112;2022-11-20T07:53:21;0.80;;;0.80;;
6809;SDS011;3443;48.812;9.112;2022-11-20T07:55:47;1.13;;;1.02;;
6809;SDS011;3443;48.812;9.112;2022-11-20T07:58:13;1.23;;;1.00;;
6809;SDS011;3443;48.812;9.112;2022-11-20T08:00:39;0.80;;;0.80;;
6809;SDS011;3443;48.812;9.112;2022-11-20T08:03:05;1.60;;;0.80;;
6809;SDS011;3443;48.812;9.112;2022-11-20T08:05:32;0.90;;;0.90;;
6809;SDS011;3443;48.812;9.112;2022-11-20T08:07:57;1.10;;;1.10;;
6809;SDS011;3443;48.812;9.112;2022-11-20T08:10:23;0.95;;;0.95;;
6809;SDS011;3443;48.812;9.112;2022-11-20T08:12:50;0.90;;;0.90;;
6809;SDS011;3443;48.812;9.112;2022-11-20T08:15:35;1.40;;;0.80;;
6809;SDS011;3443;48.812;9.112;2022-11-20T08:18:03;0.93;;;0.93;;
6809;SDS011;3443;48.812;9.112;2022-11-20T08:20:30;2.05;;;0.73;;
6809;SDS011;3443;48.812;9.112;2022-11-20T08:23:00;0.90;;;0.90;;
6809;SDS011;3443;48.812;9.112;2022-11-20T08:25:28;0.70;;;0.70;;
6809;SDS011;3443;48.812;9.112;2022-11-20T08:27:56;1.33;;;0.80;;
6809;SDS011;3443;48.812;9.112;2022-11-20T08:30:26;0.80;;;0.80;;
6809;SDS011;3443;48.812;9.112;2022-11-20T08:32:52;0.63;;;0.60;;
6809;SDS011;3443;48.812;9.112;2022-11-20T08:35:19;0.95;;;0.73;;
6809;SDS011;3443;48.812;9.112;2022-11-20T08:37:46;0.68;;;0.68;;
6809;SDS011;3443;48.812;9.112;2022-11-20T08:40:12;0.65;;;0.60;;
6809;SDS011;3443;48.812;9.112;2022-11-20T08:42:45;0.98;;;0.40;;
6809;SDS011;3443;48.812;9.112;2022-11-20T08:45:11;0.40;;;0.40;;
6809;SDS011;3443;48.812;9.112;2022-11-20T08:47:37;0.40;;;0.40;;
6809;SDS011;3443;48.812;9.112;2022-11-20T08:50:02;0.70;;;0.40;;
6809;SDS011;3443;48.812;9.112;2022-11-20T08:52:28;0.40;;;0.40;;
6809;SDS011;3443;48.812;9.112;2022-11-20T08:54:53;0.75;;;0.50;;
6809;SDS011;3443;48.812;9.112;2022-11-20T08:57:19;0.90;;;0.60;;
6809;SDS011;3443;48.812;9.112;2022-11-20T08:59:44;2.03;;;0.50;;
6809;SDS011;3443;48.812;9.112;2022-11-20T09:02:10;0.30;;;0.30;;
6809;SDS011;3443;48.812;9.112;2022-11-20T09:04:37;0.35;;;0.20;;
6809;SDS011;3443;48.812;9.112;2022-11-20T09:07:02;0.30;;;0.30;;
6809;SDS011;3443;48.812;9.112;2022-11-20T09:09:28;0.35;;;0.35;;
6809;SDS011;3443;48.812;9.112;2022-11-20T09:11:53;0.40;;;0.40;;
6809;SDS011;3443;48.812;9.112;2022-11-20T09:14:19;0.30;;;0.30;;
6809;SDS011;3443;48.812;9.112;2022-11-20T09:16:46;0.20;;;0.20;;
6809;SDS011;3443;48.812;9.112;2022-11-20T09:19:12;0.30;;;0.20;;
6809;SDS011;3443;48.812;9.112;2022-11-20T09:21:37;0.20;;;0.20;;
6809;SDS011;3443;48.812;9.112;2022-11-20T09:24:04;0.22;;;0.22;;
6809;SDS011;3443;48.812;9.112;2022-11-20T09:26:30;0.20;;;0.20;;
6809;SDS011;3443;48.812;9.112;2022-11-20T09:28:55;0.30;;;0.30;;
6809;SDS011;3443;48.812;9.112;2022-11-20T09:31:24;0.30;;;0.30;;
6809;SDS011;3443;48.812;9.112;2022-11-20T09:33:51;0.20;;;0.20;;
6809;SDS011;3443;48.812;9.112;2022-11-20T09:36:16;0.20;;;0.20;;
6809;SDS011;3443;48.812;9.112;2022-11-20T09:38:43;0.20;;;0.20;;
6809;SDS011;3443;48.812;9.112;2022-11-20T09:41:17;0.30;;;0.30;;
6809;SDS011;3443;48.812;9.112;2022-11-20T09:44:19;0.30;;;0.30;;
6809;SDS011;3443;48.812;9.112;2022-11-20T09:46:58;0.60;;;0.20;;
6809;SDS011;3443;48.812;9.112;2022-11-20T09:52:33;0.57;;;0.43;;
6809;SDS011;3443;48.812;9.112;2022-11-20T09:55:10;0.25;;;0.25;;
6809;SDS011;3443;48.812;9.112;2022-11-20T09:57:38;0.30;;;0.30;;
6809;SDS011;3443;48.812;9.112;2022-11-20T10:00:11;0.30;;;0.30;;
6809;SDS011;3443;48.812;9.112;2022-11-20T10:02:55;0.17;;;0.17;;
6809;SDS011;3443;48.812;9.112;2022-11-20T10:05:37;0.43;;;0.20;;
6809;SDS011;3443;48.812;9.112;2022-11-20T10:13:32;1.10;;;0.30;;
6809;SDS011;3443;48.812;9.112;2022-11-20T10:24:44;1.33;;;0.57;;
6809;SDS011;3443;48.812;9.112;2022-11-20T10:27:48;0.93;;;0.93;;
6809;SDS011;3443;48.812;9.112;2022-11-20T10:30:37;0.47;;;0.32;;
6809;SDS011;3443;48.812;9.112;2022-11-20T10:35:48;0.20;;;0.20;;
6809;SDS011;3443;48.812;9.112;2022-11-20T10:38:25;0.40;;;0.40;;
6809;SDS011;3443;48.812;9.112;2022-11-20T10:40:59;0.47;;;0.47;;
6809;SDS011;3443;48.812;9.112;2022-11-20T10:43:46;0.65;;;0.60;;
6809;SDS011;3443;48.812;9.112;2022-11-20T10:46:17;0.40;;;0.40;;
6809;SDS011;3443;48.812;9.112;2022-11-20T10:48:47;0.50;;;0.50;;
6809;SDS011;3443;48.812;9.112;2022-11-20T10:56:38;1.00;;;1.00;;
6809;SDS011;3443;48.812;9.112;2022-11-20T10:59:28;1.00;;;0.93;;
6809;SDS011;3443;48.812;9.112;2022-11-20T11:02:00;0.60;;;0.60;;
6809;SDS011;3443;48.812;9.112;2022-11-20T11:04:30;1.42;;;0.70;;
6809;SDS011;3443;48.812;9.112;2022-11-20T11:07:06;0.50;;;0.50;;
6809;SDS011;3443;48.812;9.112;2022-11-20T11:09:37;0.90;;;0.70;;
6809;SDS011;3443;48.812;9.112;2022-11-20T11:12:08;0.73;;;0.73;;
6809;SDS011;3443;48.812;9.112;2022-11-20T11:14:50;0.70;;;0.70;;
6809;SDS011;3443;48.812;9.112;2022-11-20T11:17:28;0.70;;;0.70;;
6809;SDS011;3443;48.812;9.112;2022-11-20T11:19:56;2.38;;;0.70;;
6809;SDS011;3443;48.812;9.112;2022-11-20T11:22:25;0.77;;;0.77;;
6809;SDS011;3443;48.812;9.112;2022-11-20T11:24:54;1.02;;;1.02;;
6809;SDS011;3443;48.812;9.112;2022-11-20T11:27:20;1.85;;;1.75;;
6809;SDS011;3443;48.812;9.112;2022-11-20T11:29:45;2.58;;;1.88;;
6809;SDS011;3443;48.812;9.112;2022-11-20T11:34:39;1.40;;;1.30;;
6809;SDS011;3443;48.812;9.112;2022-11-20T11:37:04;2.15;;;1.42;;
6809;SDS011;3443;48.812;9.112;2022-11-20T11:39:37;1.98;;;1.50;;
6809;SDS011;3443;48.812;9.112;2022-11-20T11:42:10;1.20;;;1.20;;
6809;SDS011;3443;48.812;9.112;2022-11-20T11:44:43;2.20;;;1.65;;
6809;SDS011;3443;48.812;9.112;2022-11-20T11:47:30;1.63;;;1.52;;
6809;SDS011;3443;48.812;9.112;2022-11-20T11:52:40;1.40;;;1.30;;
6809;SDS011;3443;48.812;9.112;2022-11-20T11:55:14;3.63;;;1.50;;
6809;SDS011;3443;48.812;9.112;2022-11-20T12:00:21;1.48;;;0.90;;
6809;SDS011;3443;48.812;9.112;2022-11-20T12:05:36;1.83;;;1.05;;
6809;SDS011;3443;48.812;9.112;2022-11-20T12:10:56;1.75;;;0.80;;
6809;SDS011;3443;48.812;9.112;2022-11-20T12:16:14;1.77;;;0.60;;
6809;SDS011;3443;48.812;9.112;2022-11-20T12:18:41;1.25;;;0.60;;
6809;SDS011;3443;48.812;9.112;2022-11-20T12:29:15;0.52;;;0.40;;
6809;SDS011;3443;48.812;9.112;2022-11-20T12:32:09;0.88;;;0.50;;
6809;SDS011;3443;48.812;9.112;2022-11-20T12:40:45;0.55;;;0.45;;
6809;SDS011;3443;48.812;9.112;2022-11-20T12:43:27;1.58;;;0.43;;
6809;SDS011;3443;48.812;9.112;2022-11-20T12:57:54;0.50;;;0.50;;
6809;SDS011;3443;48.812;9.112;2022-11-20T13:00:21;1.08;;;0.30;;
6809;SDS011;3443;48.812;9.112;2022-11-20T13:08:34;1.48;;;0.50;;
6809;SDS011;3443;48.812;9.112;2022-11-20T13:11:04;0.82;;;0.30;;
6809;SDS011;3443;48.812;9.112;2022-11-20T13:13:43;3.30;;;0.50;;
6809;SDS011;3443;48.812;9.112;2022-11-20T13:16:14;0.93;;;0.40;;
6809;SDS011;3443;48.812;9.112;2022-11-20T13:18:44;1.10;;;0.50;;
6809;SDS011;3443;48.812;9.112;2022-11-20T13:21:17;0.60;;;0.40;;
6809;SDS011;3443;48.812;9.112;2022-11-20T13:23:47;0.63;;;0.50;;
6809;SDS011;3443;48.812;9.112;2022-11-20T13:26:22;2.20;;;0.32;;
6809;SDS011;3443;48.812;9.112;2022-11-20T13:29:03;0.90;;;0.30;;
6809;SDS011;3443;48.812;9.112;2022-11-20T13:31:38;2.58;;;0.30;;
6809;SDS011;3443;48.812;9.112;2022-11-20T13:34:11;1.42;;;0.40;;
6809;SDS011;3443;48.812;9.112;2022-11-20T13:36:49;3.05;;;0.47;;
6809;SDS011;3443;48.812;9.112;2022-11-20T13:39:27;0.77;;;0.30;;
6809;SDS011;3443;48.812;9.112;2022-11-20T13:41:58;0.90;;;0.30;;
6809;SDS011;3443;48.812;9.112;2022-11-20T13:44:37;0.90;;;0.40;;
6809;SDS011;3443;48.812;9.112;2022-11-20T13:47:17;1.02;;;0.40;;
6809;SDS011;3443;48.812;9.112;2022-11-20T13:49:49;0.63;;;0.30;;
6809;SDS011;3443;48.812;9.112;2022-11-20T13:55:12;1.30;;;0.35;;
6809;SDS011;3443;48.812;9.112;2022-11-20T14:00:15;1.42;;;0.40;;
6809;SDS011;3443;48.812;9.112;2022-11-20T14:02:41;0.30;;;0.25;;
6809;SDS011;3443;48.812;9.112;2022-11-20T14:05:15;0.60;;;0.28;;
6809;SDS011;3443;48.812;9.112;2022-11-20T14:07:45;0.68;;;0.40;;
6809;SDS011;3443;48.812;9.112;2022-11-20T14:10:26;0.20;;;0.20;;
6809;SDS011;3443;48.812;9.112;2022-11-20T14:12:53;0.20;;;0.20;;
6809;SDS011;3443;48.812;9.112;2022-11-20T14:17:53;0.30;;;0.30;;
6809;SDS011;3443;48.812;9.112;2022-11-20T14:20:18;2.70;;;0.50;;
6809;SDS011;3443;48.812;9.112;2022-11-20T14:22:52;1.55;;;0.47;;
6809;SDS011;3443;48.812;9.112;2022-11-20T14:28:04;3.30;;;0.40;;
6809;SDS011;3443;48.812;9.112;2022-11-20T14:30:37;0.55;;;0.30;;
6809;SDS011;3443;48.812;9.112;2022-11-20T14:33:09;0.47;;;0.47;;
6809;SDS011;3443;48.812;9.112;2022-11-20T14:35:37;1.83;;;0.50;;
6809;SDS011;3443;48.812;9.112;2022-11-20T14:38:10;0.47;;;0.45;;
6809;SDS011;3443;48.812;9.112;2022-11-20T14:40:38;0.50;;;0.50;;
6809;SDS011;3443;48.812;9.112;2022-11-20T14:45:42;1.05;;;0.63;;
6809;SDS011;3443;48.812;9.112;2022-11-20T14:48:08;1.30;;;0.70;;
6809;SDS011;3443;48.812;9.112;2022-11-20T14:50:35;2.13;;;0.68;;
6809;SDS011;3443;48.812;9.112;2022-11-20T14:53:03;1.05;;;0.80;;
6809;SDS011;3443;48.812;9.112;2022-11-20T14:55:32;0.63;;;0.60;;
6809;SDS011;3443;48.812;9.112;2022-11-20T14:58:01;1.13;;;0.60;;
6809;SDS011;3443;48.812;9.112;2022-11-20T15:00:28;1.05;;;0.75;;
6809;SDS011;3443;48.812;9.112;2022-11-20T15:02:55;0.80;;;0.80;;
6809;SDS011;3443;48.812;9.112;2022-11-20T15:05:25;0.50;;;0.50;;
6809;SDS011;3443;48.812;9.112;2022-11-20T15:08:09;1.27;;;0.50;;
6809;SDS011;3443;48.812;9.112;2022-11-20T15:10:35;2.05;;;0.43;;
6809;SDS011;3443;48.812;9.112;2022-11-20T15:13:04;0.45;;;0.45;;
6809;SDS011;3443;48.812;9.112;2022-11-20T15:18:32;0.47;;;0.40;;
6809;SDS011;3443;48.812;9.112;2022-11-20T15:21:10;0.77;;;0.60;;
6809;SDS011;3443;48.812;9.112;2022-11-20T15:23:37;0.60;;;0.57;;
6809;SDS011;3443;48.812;9.112;2022-11-20T15:26:09;0.60;;;0.60;;
6809;SDS011;3443;48.812;9.112;2022-11-20T15:28:37;0.50;;;0.50;;
6809;SDS011;3443;48.812;9.112;2022-11-20T15:31:05;0.55;;;0.55;;
6809;SDS011;3443;48.812;9.112;2022-11-20T15:33:32;2.67;;;0.60;;
6809;SDS011;3443;48.812;9.112;2022-11-20T15:35:58;2.13;;;0.85;;
6809;SDS011;3443;48.812;9.112;2022-11-20T15:38:24;1.38;;;0.85;;
6809;SDS011;3443;48.812;9.112;2022-11-20T15:40:50;0.70;;;0.70;;
6809;SDS011;3443;48.812;9.112;2022-11-20T15:43:16;1.13;;;0.90;;
6809;SDS011;3443;48.812;9.112;2022-11-20T15:45:45;0.43;;;0.43;;
6809;SDS011;3443;48.812;9.112;2022-11-20T15:48:24;1.00;;;0.60;;
6809;SDS011;3443;48.812;9.112;2022-11-20T15:53:23;1.35;;;0.68;;
6809;SDS011;3443;48.812;9.112;2022-11-20T15:55:49;0.63;;;0.63;;
6809;SDS011;3443;48.812;9.112;2022-11-20T15:58:15;0.55;;;0.40;;
6809;SDS011;3443;48.812;9.112;2022-11-20T16:00:41;0.95;;;0.80;;
6809;SDS011;3443;48.812;9.112;2022-11-20T16:03:11;0.60;;;0.60;;
6809;SDS011;3443;48.812;9.112;2022-11-20T16:05:38;0.45;;;0.45;;
6809;SDS011;3443;48.812;9.112;2022-11-20T16:08:04;0.73;;;0.73;;
6809;SDS011;3443;48.812;9.112;2022-11-20T16:10:29;0.88;;;0.65;;
6809;SDS011;3443;48.812;9.112;2022-11-20T16:12:55;3.08;;;0.90;;
6809;SDS011;3443;48.812;9.112;2022-11-20T16:15:55;1.00;;;0.85;;
6809;SDS011;3443;48.812;9.112;2022-11-20T16:18:22;1.35;;;0.80;;
6809;SDS011;3443;48.812;9.112;2022-11-20T16:20:49;1.15;;;0.77;;
6809;SDS011;3443;48.812;9.112;2022-11-20T16:23:16;0.68;;;0.68;;
6809;SDS011;3443;48.812;9.112;2022-11-20T16:25:43;1.15;;;0.80;;
6809;SDS011;3443;48.812;9.112;2022-11-20T16:28:09;0.80;;;0.80;;
6809;SDS011;3443;48.812;9.112;2022-11-20T16:30:35;1.45;;;0.52;;
6809;SDS011;3443;48.812;9.112;2022-11-20T16:33:01;0.57;;;0.57;;
6809;SDS011;3443;48.812;9.112;2022-11-20T16:35:27;0.80;;;0.80;;
6809;SDS011;3443;48.812;9.112;2022-11-20T16:37:54;0.75;;;0.73;;
6809;SDS011;3443;48.812;9.112;2022-11-20T16:40:21;0.77;;;0.77;;
6809;SDS011;3443;48.812;9.112;2022-11-20T16:42:47;0.90;;;0.90;;
6809;SDS011;3443;48.812;9.112;2022-11-20T16:45:12;0.80;;;0.80;;
6809;SDS011;3443;48.812;9.112;2022-11-20T16:47:38;1.60;;;0.73;;
6809;SDS011;3443;48.812;9.112;2022-11-20T16:50:04;0.80;;;0.80;;
6809;SDS011;3443;48.812;9.112;2022-11-20T16:52:30;2.95;;;0.73;;
6809;SDS011;3443;48.812;9.112;2022-11-20T16:54:56;0.93;;;0.93;;
6809;SDS011;3443;48.812;9.112;2022-11-20T16:57:22;0.60;;;0.60;;
6809;SDS011;3443;48.812;9.112;2022-11-20T16:59:48;1.88;;;0.88;;
6809;SDS011;3443;48.812;9.112;2022-11-20T17:02:14;0.80;;;0.80;;